Time;durP1;ratioP1;P1;durP2;ratioP2;P2;SDS_P1;SDS_P2;PMS_P1;PMS_P2;Temp;Humidity;BMP_temperature;BMP_pressure;BME280_temperature;BME280_humidity;BME280_pressure;Samples;Min_cycle;Max_cycle;Signal;HPM_P1;HPM_P2
2022/04/15 00:01:45;;;;;;;6.22;3.28;;;;;;;11.44;62.12;101013.78;5064896;28;20478;-44
2022/04/15 00:04:12;;;;;;;8.98;3.55;;;;;;;11.44;62.37;101008.59;5065436;28;20437;-41
2022/04/15 00:06:39;;;;;;;8.48;5.63;;;;;;;11.42;62.75;101016.38;5062202;28;20071;-40
2022/04/15 00:09:06;;;;;;;14.80;6.38;;;;;;;11.39;62.09;101013.75;5062611;28;20052;-42
2022/04/15 00:11:33;;;;;;;9.10;6.50;;;;;;;11.36;62.45;101013.75;5061891;28;20119;-43
2022/04/15 00:14:00;;;;;;;7.50;5.25;;;;;;;11.32;62.10;101018.00;5064960;28;20695;-43
2022/04/15 00:16:27;;;;;;;8.85;5.38;;;;;;;11.30;62.26;101017.13;5060659;28;20064;-45
2022/04/15 00:18:54;;;;;;;7.03;4.93;;;;;;;11.26;62.89;101020.56;5059301;28;20040;-41
2022/04/15 00:21:20;;;;;;;7.10;5.28;;;;;;;11.24;62.79;101024.84;5059588;28;20048;-41
2022/04/15 00:23:48;;;;;;;8.93;3.88;;;;;;;11.22;62.26;101025.69;5060762;28;20442;-43
2022/04/15 00:26:15;;;;;;;9.40;5.32;;;;;;;11.19;62.63;101029.13;5059547;28;20057;-42
2022/04/15 00:28:41;;;;;;;9.02;4.03;;;;;;;11.18;62.74;101027.41;5057273;28;20431;-42
2022/04/15 00:31:08;;;;;;;8.88;6.05;;;;;;;11.17;62.89;101025.63;5059219;28;20066;-42
2022/04/15 00:33:35;;;;;;;9.68;5.55;;;;;;;11.17;62.72;101030.81;5061734;28;20139;-47
2022/04/15 00:36:01;;;;;;;8.45;5.20;;;;;;;11.15;62.48;101028.19;5059149;28;20067;-41
2022/04/15 00:38:28;;;;;;;11.57;5.93;;;;;;;11.14;62.16;101030.78;5061145;28;20049;-41
2022/04/15 00:40:54;;;;;;;8.48;4.00;;;;;;;11.13;62.18;101026.44;5066281;28;20459;-41
2022/04/15 00:43:21;;;;;;;7.70;5.45;;;;;;;11.09;63.08;101029.88;5064473;28;20097;-44
2022/04/15 00:45:47;;;;;;;9.07;6.05;;;;;;;11.07;62.54;101034.19;5062096;28;20078;-42
2022/04/15 00:48:16;;;;;;;9.18;6.03;;;;;;;11.04;62.93;101035.88;5062494;28;20067;-43
2022/04/15 00:50:43;;;;;;;11.68;6.15;;;;;;;11.02;62.71;101032.38;5064444;28;20044;-40
2022/04/15 00:53:11;;;;;;;7.93;5.47;;;;;;;11.01;62.87;101030.66;5059593;28;20975;-43
2022/04/15 00:55:40;;;;;;;9.25;5.65;;;;;;;11.00;62.43;101030.63;5056126;28;20048;-41
2022/04/15 00:58:07;;;;;;;7.75;5.78;;;;;;;10.97;62.33;101028.88;5056566;28;20392;-44
2022/04/15 01:00:37;;;;;;;12.88;6.03;;;;;;;10.96;63.19;101036.63;5060717;28;20106;-42
2022/04/15 01:03:05;;;;;;;8.57;5.03;;;;;;;10.93;62.88;101032.28;5058331;28;20049;-42
2022/04/15 01:05:34;;;;;;;6.90;5.25;;;;;;;10.89;62.83;101035.69;5063220;28;20040;-42
2022/04/15 01:08:03;;;;;;;8.90;5.15;;;;;;;10.86;62.69;101043.44;5064075;28;20056;-43
2022/04/15 01:10:35;;;;;;;7.35;6.40;;;;;;;10.82;62.56;101047.72;5058373;28;20451;-42
2022/04/15 01:13:05;;;;;;;10.95;6.53;;;;;;;10.78;63.48;101049.38;5062410;28;20044;-42
2022/04/15 01:15:52;;;;;;;10.18;6.53;;;;;;;10.76;62.83;101045.03;5077583;28;20052;-43
2022/04/15 01:18:19;;;;;;;10.63;6.57;;;;;;;10.74;63.50;101045.03;5056720;28;20546;-42
2022/04/15 01:20:49;;;;;;;10.07;6.97;;;;;;;10.71;63.43;101042.38;5062031;28;20049;-43
2022/04/15 01:23:16;;;;;;;8.05;4.40;;;;;;;10.70;62.96;101045.84;5064545;28;20473;-41
2022/04/15 01:25:43;;;;;;;8.20;5.70;;;;;;;10.68;63.32;101052.72;5060795;28;20137;-44
2022/04/15 01:28:10;;;;;;;9.88;5.70;;;;;;;10.65;63.63;101052.69;5058683;28;20053;-42
2022/04/15 01:30:37;;;;;;;8.27;5.30;;;;;;;10.63;63.44;101054.38;5061635;28;20053;-42
2022/04/15 01:33:03;;;;;;;10.02;6.22;;;;;;;10.62;63.24;101047.47;5062100;28;20749;-44
2022/04/15 01:35:33;;;;;;;10.63;6.65;;;;;;;10.61;63.90;101051.75;5057243;28;20929;-43
2022/04/15 01:38:04;;;;;;;8.48;5.75;;;;;;;10.62;64.22;101055.22;5060047;28;20052;-44
2022/04/15 01:40:31;;;;;;;9.70;5.07;;;;;;;10.62;63.73;101053.53;5061132;28;20816;-43
2022/04/15 01:42:57;;;;;;;10.02;6.70;;;;;;;10.63;63.39;101059.56;5061087;28;20044;-42
2022/04/15 01:45:24;;;;;;;10.07;6.53;;;;;;;10.63;63.56;101062.16;5063822;28;20044;-43
2022/04/15 01:47:52;;;;;;;10.88;6.53;;;;;;;10.64;63.76;101061.31;5066191;28;20063;-41
2022/04/15 01:50:19;;;;;;;9.15;5.72;;;;;;;10.62;64.01;101055.22;5064802;28;20048;-42
2022/04/15 01:52:45;;;;;;;12.77;6.15;;;;;;;10.60;62.99;101052.63;5063868;28;20043;-43
2022/04/15 01:55:12;;;;;;;9.52;6.50;;;;;;;10.58;63.58;101056.03;5057774;28;20090;-41
2022/04/15 01:57:38;;;;;;;9.88;6.40;;;;;;;10.54;63.47;101060.31;5065070;28;20102;-44
2022/04/15 02:00:06;;;;;;;9.60;5.90;;;;;;;10.49;64.10;101057.66;5065207;28;20044;-42
2022/04/15 02:02:32;;;;;;;11.25;7.20;;;;;;;10.46;63.96;101062.78;5061378;28;20053;-43
2022/04/15 02:04:59;;;;;;;8.75;5.57;;;;;;;10.42;63.63;101060.97;5062488;28;20080;-42
2022/04/15 02:07:26;;;;;;;8.15;5.35;;;;;;;10.39;63.65;101071.28;5061965;28;20045;-41
2022/04/15 02:09:52;;;;;;;9.48;6.53;;;;;;;10.35;63.49;101064.31;5062792;28;20048;-43
2022/04/15 02:12:19;;;;;;;10.50;6.75;;;;;;;10.31;64.25;101068.59;5063826;28;20056;-41
2022/04/15 02:14:47;;;;;;;9.02;5.85;;;;;;;10.29;63.87;101071.16;5062819;28;20116;-42
2022/04/15 02:17:13;;;;;;;9.40;5.65;;;;;;;10.24;64.19;101065.03;5063147;28;20048;-41
2022/04/15 02:19:40;;;;;;;9.10;5.47;;;;;;;10.21;64.18;101062.41;5062024;28;22227;-44
2022/04/15 02:22:07;;;;;;;10.45;5.78;;;;;;;10.18;63.89;101061.47;5060877;28;20049;-45
2022/04/15 02:24:33;;;;;;;11.27;6.60;;;;;;;10.12;64.45;101063.13;5062427;28;20110;-41
2022/04/15 02:27:00;;;;;;;14.48;6.65;;;;;;;10.09;64.22;101062.19;5058741;28;20051;-43
2022/04/15 02:29:26;;;;;;;10.07;6.75;;;;;;;10.01;64.62;101062.97;5064360;28;20052;-42
2022/04/15 02:31:53;;;;;;;10.80;5.95;;;;;;;9.96;64.52;101061.16;5063972;28;20129;-41
2022/04/15 02:34:20;;;;;;;14.90;7.88;;;;;;;9.88;64.53;101050.66;5064444;28;20047;-45
2022/04/15 02:36:46;;;;;;;10.63;7.03;;;;;;;9.81;64.69;101041.06;5059877;28;20086;-41
2022/04/15 02:39:13;;;;;;;8.18;5.72;;;;;;;9.73;65.06;101048.72;5064094;28;20102;-41
2022/04/15 02:41:41;;;;;;;9.70;6.00;;;;;;;9.67;65.01;101052.06;5063100;28;20048;-42
2022/04/15 02:44:08;;;;;;;11.40;7.07;;;;;;;9.61;65.33;101054.53;5064263;28;20107;-42
2022/04/15 02:46:36;;;;;;;9.88;6.43;;;;;;;9.56;65.12;101054.44;5063180;28;20072;-42
2022/04/15 02:49:04;;;;;;;11.40;8.18;;;;;;;9.50;65.19;101057.78;5065209;28;20090;-41
2022/04/15 02:51:31;;;;;;;9.02;6.38;;;;;;;9.46;65.26;101063.75;5067098;28;20048;-43
2022/04/15 02:53:57;;;;;;;12.82;6.30;;;;;;;9.42;65.55;101068.84;5062487;28;20049;-43
2022/04/15 02:56:24;;;;;;;9.52;6.63;;;;;;;9.40;65.77;101071.41;5068387;28;20412;-45
2022/04/15 02:58:50;;;;;;;9.45;6.10;;;;;;;9.37;65.26;101076.53;5066193;28;20048;-42
2022/04/15 03:01:17;;;;;;;10.13;6.00;;;;;;;9.34;65.21;101071.28;5063483;28;20052;-44
2022/04/15 03:03:44;;;;;;;12.80;7.10;;;;;;;9.31;65.12;101077.28;5065130;28;20048;-44
2022/04/15 03:06:10;;;;;;;9.88;6.72;;;;;;;9.26;66.15;101077.19;5070365;28;20109;-45
2022/04/15 03:08:37;;;;;;;11.13;6.28;;;;;;;9.25;66.70;101082.31;5068794;28;20052;-43
2022/04/15 03:11:06;;;;;;;11.75;7.10;;;;;;;9.23;65.93;101079.69;5065696;28;20048;-43
2022/04/15 03:13:34;;;;;;;14.10;7.55;;;;;;;9.22;66.12;101077.97;5068631;28;20059;-48
2022/04/15 03:16:03;;;;;;;10.65;6.50;;;;;;;9.20;65.44;101079.66;5065304;28;20049;-42
2022/04/15 03:18:30;;;;;;;10.07;6.45;;;;;;;9.16;65.99;101077.88;5064331;28;20087;-44
2022/04/15 03:20:57;;;;;;;11.20;6.45;;;;;;;9.13;65.75;101076.06;5061663;28;20095;-41
2022/04/15 03:23:24;;;;;;;11.80;7.10;;;;;;;9.15;66.45;101080.41;5064182;28;20045;-41
2022/04/15 03:25:51;;;;;;;13.73;7.53;;;;;;;9.12;65.73;101081.22;5067088;28;20051;-42
2022/04/15 03:28:17;;;;;;;13.88;8.20;;;;;;;9.11;65.81;101076.88;5064435;28;20113;-44
2022/04/15 03:30:44;;;;;;;13.45;6.97;;;;;;;9.11;66.19;101084.63;5063910;28;20056;-43
2022/04/15 03:33:10;;;;;;;11.68;7.35;;;;;;;9.11;66.38;101079.47;5063358;28;20519;-41
2022/04/15 03:35:37;;;;;;;12.75;6.95;;;;;;;9.08;65.74;101075.13;5065294;28;20102;-42
2022/04/15 03:38:04;;;;;;;11.73;7.03;;;;;;;9.07;66.34;101075.97;5065160;28;20052;-45
2022/04/15 03:40:30;;;;;;;12.80;6.97;;;;;;;9.07;65.82;101075.97;5065610;28;20056;-43
2022/04/15 03:42:57;;;;;;;13.43;7.28;;;;;;;9.06;66.23;101071.63;5065561;28;20056;-44
2022/04/15 03:45:24;;;;;;;12.23;6.72;;;;;;;9.06;66.24;101075.94;5066408;28;20098;-46
2022/04/15 03:47:54;;;;;;;12.07;6.75;;;;;;;9.03;66.23;101074.16;5064969;28;20055;-46
2022/04/15 03:50:21;;;;;;;9.73;6.53;;;;;;;9.00;66.31;101076.66;5066011;28;20067;-41
2022/04/15 03:52:49;;;;;;;13.40;5.15;;;;;;;8.98;66.65;101071.47;5066093;28;20438;-42
2022/04/15 03:55:17;;;;;;;12.43;7.45;;;;;;;8.95;67.09;101065.38;5063616;28;20098;-42
2022/04/15 03:58:02;;;;;;;11.10;6.97;;;;;;;8.91;66.67;101061.84;5063589;28;20105;-44
2022/04/15 04:00:28;;;;;;;17.25;8.98;;;;;;;8.89;67.27;101058.38;5067027;28;20066;-41
2022/04/15 04:03:00;;;;;;;14.90;7.57;;;;;;;8.87;66.71;101060.03;5065439;28;20045;-41
2022/04/15 04:05:27;;;;;;;12.15;7.28;;;;;;;8.84;67.14;101054.81;5061499;28;20488;-45
2022/04/15 04:07:54;;;;;;;10.70;6.88;;;;;;;8.81;67.43;101058.22;5064017;28;20136;-42
2022/04/15 04:10:20;;;;;;;13.23;7.82;;;;;;;8.78;67.19;101065.03;5063597;28;20119;-45
2022/04/15 04:12:48;;;;;;;14.48;7.97;;;;;;;8.74;67.41;101059.78;5064085;28;20090;-42
2022/04/15 04:15:15;;;;;;;12.18;7.03;;;;;;;8.72;67.50;101061.47;5063747;28;20061;-43
2022/04/15 04:17:42;;;;;;;15.30;7.25;;;;;;;8.68;67.66;101067.41;5063890;28;20385;-45
2022/04/15 04:20:10;;;;;;;13.38;7.03;;;;;;;8.66;67.24;101070.78;5066256;28;20116;-42
2022/04/15 04:22:38;;;;;;;13.00;7.15;;;;;;;8.63;67.24;101070.72;5066460;28;20125;-47
2022/04/15 04:25:08;;;;;;;14.55;7.68;;;;;;;8.60;67.57;101074.13;5064772;28;20100;-45
2022/04/15 04:27:37;;;;;;;23.17;11.45;;;;;;;8.56;67.37;101080.06;5061145;28;20044;-41
2022/04/15 04:30:05;;;;;;;18.50;7.38;;;;;;;8.54;67.04;101079.16;5062981;28;20470;-42
2022/04/15 04:32:32;;;;;;;14.27;7.93;;;;;;;8.49;66.80;101082.44;5065547;28;20074;-44
2022/04/15 04:34:59;;;;;;;16.73;7.93;;;;;;;8.47;67.72;101076.41;5062642;28;20040;-44
2022/04/15 04:37:25;;;;;;;14.27;8.57;;;;;;;8.47;67.95;101081.56;5062804;28;20113;-42
2022/04/15 04:39:52;;;;;;;15.23;7.93;;;;;;;8.47;67.91;101085.84;5068401;28;20110;-42
2022/04/15 04:42:21;;;;;;;13.00;7.88;;;;;;;8.48;68.16;101082.44;5063607;28;20052;-40
2022/04/15 04:44:48;;;;;;;12.90;8.15;;;;;;;8.46;67.84;101085.00;5060999;28;20048;-42
2022/04/15 04:47:15;;;;;;;12.70;6.07;;;;;;;8.45;67.30;101087.53;5063922;28;20501;-41
2022/04/15 04:49:42;;;;;;;12.63;7.95;;;;;;;8.45;67.14;101088.38;5060260;28;20057;-44
2022/04/15 04:52:08;;;;;;;13.60;7.72;;;;;;;8.45;68.32;101085.81;5061879;28;20052;-45
2022/04/15 04:54:35;;;;;;;12.30;9.00;;;;;;;8.46;68.42;101090.16;5058734;28;20047;-46
2022/04/15 04:57:02;;;;;;;13.00;8.02;;;;;;;8.47;67.57;101088.41;5061475;28;20492;-42
2022/04/15 04:59:31;;;;;;;14.63;8.10;;;;;;;8.46;67.72;101084.09;5065629;28;20040;-42
2022/04/15 05:01:58;;;;;;;14.43;6.60;;;;;;;8.46;68.25;101095.31;5061707;28;20439;-42
2022/04/15 05:04:25;;;;;;;13.25;8.02;;;;;;;8.45;68.15;101096.13;5059967;28;20064;-43
2022/04/15 05:06:52;;;;;;;13.68;8.30;;;;;;;8.45;68.29;101103.88;5065052;28;20063;-43
2022/04/15 05:09:19;;;;;;;13.02;9.10;;;;;;;8.44;68.81;101096.97;5064153;28;20074;-41
2022/04/15 05:11:46;;;;;;;15.07;9.00;;;;;;;8.43;67.65;101105.56;5063703;28;20045;-43
2022/04/15 05:14:12;;;;;;;14.80;8.07;;;;;;;8.45;67.58;101103.88;5067370;28;20086;-44
2022/04/15 05:16:39;;;;;;;11.55;8.23;;;;;;;8.45;67.79;101109.03;5062446;28;20053;-41
2022/04/15 05:19:05;;;;;;;12.32;8.52;;;;;;;8.46;67.52;101103.06;5059075;28;20048;-41
2022/04/15 05:21:32;;;;;;;18.15;8.45;;;;;;;8.48;67.42;101106.53;5058538;28;20044;-41
2022/04/15 05:23:58;;;;;;;12.05;8.07;;;;;;;8.51;67.59;101107.47;5059686;28;20084;-40
2022/04/15 05:26:25;;;;;;;12.65;7.90;;;;;;;8.51;67.50;101110.03;5062096;28;20040;-47
2022/04/15 05:28:52;;;;;;;13.93;7.25;;;;;;;8.52;68.30;101104.03;5061479;28;20074;-44
2022/04/15 05:31:18;;;;;;;15.07;7.50;;;;;;;8.55;67.42;101119.63;5060044;28;20048;-41
2022/04/15 05:33:46;;;;;;;11.85;6.95;;;;;;;8.56;68.04;101119.66;5059518;28;20068;-43
2022/04/15 05:36:12;;;;;;;11.18;6.90;;;;;;;8.59;68.61;101121.44;5058785;28;20051;-42
2022/04/15 05:38:39;;;;;;;13.70;7.50;;;;;;;8.61;67.97;101120.63;5057665;28;20074;-42
2022/04/15 05:41:11;;;;;;;13.32;7.53;;;;;;;8.64;68.88;101114.66;5059628;28;20055;-43
2022/04/15 05:43:37;;;;;;;12.55;7.45;;;;;;;8.67;68.50;101113.84;5061288;28;20048;-43
2022/04/15 05:46:04;;;;;;;16.83;8.02;;;;;;;8.69;67.56;101113.06;5060692;28;20064;-42
2022/04/15 05:48:31;;;;;;;12.95;7.88;;;;;;;8.74;68.31;101114.03;5063200;28;20040;-42
2022/04/15 05:50:58;;;;;;;13.60;5.32;;;;;;;8.80;68.54;101115.00;5065277;28;20377;-43
2022/04/15 05:53:25;;;;;;;14.90;7.40;;;;;;;8.85;67.57;101118.56;5060734;28;20052;-41
2022/04/15 05:55:51;;;;;;;12.90;7.18;;;;;;;8.90;68.04;101119.53;5062400;28;20052;-41
2022/04/15 05:58:24;;;;;;;11.68;7.32;;;;;;;8.95;67.60;101122.22;5061124;28;20139;-42
2022/04/15 06:00:51;;;;;;;12.00;6.82;;;;;;;8.99;67.94;101127.47;5059030;28;20056;-42
2022/04/15 06:03:20;;;;;;;11.88;7.07;;;;;;;9.06;67.92;101135.38;5057830;28;20496;-41
2022/04/15 06:05:47;;;;;;;19.95;12.95;;;;;;;9.11;68.09;101123.41;5056819;28;20123;-42
2022/04/15 06:08:14;;;;;;;17.23;10.88;;;;;;;9.19;68.32;101127.00;5060006;28;20074;-44
2022/04/15 06:10:42;;;;;;;19.20;9.85;;;;;;;9.25;68.27;101134.91;5058468;28;20053;-41
2022/04/15 06:13:13;;;;;;;15.68;9.30;;;;;;;9.34;67.57;101144.56;5055919;28;20106;-43
2022/04/15 06:15:50;;;;;;;17.30;7.93;;;;;;;9.40;68.50;101138.66;5056278;28;20120;-44
2022/04/15 06:18:19;;;;;;;17.98;9.93;;;;;;;9.46;68.19;101138.75;5057094;28;20048;-44
2022/04/15 06:20:46;;;;;;;18.08;9.00;;;;;;;9.56;68.13;101138.94;5060427;28;20098;-43
2022/04/15 06:23:14;;;;;;;15.73;9.02;;;;;;;9.63;68.76;101138.22;5059178;28;20045;-48
2022/04/15 06:25:42;;;;;;;17.50;9.70;;;;;;;9.70;68.35;101141.78;5046162;28;20048;-46
2022/04/15 06:28:08;;;;;;;15.40;8.25;;;;;;;9.76;68.06;101140.19;5061287;28;20071;-42
2022/04/15 06:30:35;;;;;;;16.73;8.32;;;;;;;9.86;68.53;101143.78;5066214;28;20044;-42
2022/04/15 06:33:05;;;;;;;15.30;7.60;;;;;;;9.93;68.61;101139.59;5064942;28;20086;-43
2022/04/15 06:35:32;;;;;;;;;;;;;;;9.92;68.96;101150.81;5067982;28;20090;-42
2022/04/15 06:37:59;;;;;;;13.02;7.97;;;;;;;10.10;67.78;101157.16;5061654;28;19968;-43
2022/04/15 06:40:26;;;;;;;14.52;8.10;;;;;;;10.22;68.08;101162.53;5062233;28;20147;-45
2022/04/15 06:42:52;;;;;;;13.82;8.18;;;;;;;10.33;67.85;101159.25;5065497;28;20114;-43
2022/04/15 06:45:23;;;;;;;;;;;;;;;10.34;69.00;101161.84;5061934;28;20051;-46
2022/04/15 06:47:49;;;;;;;14.05;7.43;;;;;;;10.49;67.79;101166.44;5062356;28;20308;-40
2022/04/15 06:50:16;;;;;;;14.60;7.78;;;;;;;10.65;67.81;101156.31;5065663;28;20053;-42
2022/04/15 06:52:43;;;;;;;12.82;7.45;;;;;;;11.02;68.45;101167.19;5064627;28;20075;-45
2022/04/15 06:55:09;;;;;;;19.58;8.30;;;;;;;11.46;67.50;101162.56;5067589;28;20108;-42
2022/04/15 06:57:36;;;;;;;12.73;8.43;;;;;;;11.93;68.14;101163.91;5070348;28;20056;-45
2022/04/15 07:00:05;;;;;;;16.90;7.95;;;;;;;12.65;66.83;101169.72;5069685;28;20052;-46
2022/04/15 07:02:34;;;;;;;14.75;8.07;;;;;;;13.43;65.85;101161.41;5069753;28;20045;-40
2022/04/15 07:05:00;;;;;;;10.23;6.85;;;;;;;14.26;65.81;101168.50;5068044;28;20170;-42
2022/04/15 07:07:27;;;;;;;11.18;6.97;;;;;;;14.99;64.27;101175.41;5065062;28;20138;-43
2022/04/15 07:09:54;;;;;;;10.32;5.72;;;;;;;15.63;63.62;101177.72;5070235;28;20044;-47
2022/04/15 07:12:20;;;;;;;11.15;6.43;;;;;;;15.99;62.15;101179.28;5067126;28;20049;-45
2022/04/15 07:14:47;;;;;;;12.35;7.47;;;;;;;16.17;61.72;101183.50;5070703;28;20106;-42
2022/04/15 07:17:14;;;;;;;7.68;5.95;;;;;;;16.30;61.27;101186.88;5059408;28;20045;-43
2022/04/15 07:19:42;;;;;;;9.15;5.13;;;;;;;16.44;61.33;101190.25;5065089;28;20139;-48
2022/04/15 07:22:08;;;;;;;7.78;5.38;;;;;;;16.73;60.44;101193.47;5064365;28;20048;-43
2022/04/15 07:24:35;;;;;;;7.15;4.75;;;;;;;17.14;60.62;101193.94;5062455;28;20036;-44
2022/04/15 07:27:03;;;;;;;7.30;4.45;;;;;;;17.65;60.18;101197.66;5063460;28;20106;-46
2022/04/15 07:29:30;;;;;;;8.98;5.60;;;;;;;18.18;58.41;101204.78;5060081;28;20048;-43
2022/04/15 07:31:57;;;;;;;5.53;4.18;;;;;;;18.68;58.40;101209.16;5062414;28;20045;-43
2022/04/15 07:34:26;;;;;;;7.20;4.47;;;;;;;19.18;57.32;101208.25;5057078;28;20041;-45
2022/04/15 07:36:54;;;;;;;5.07;4.18;;;;;;;19.63;55.44;101215.19;5062712;28;20403;-42
2022/04/15 07:39:22;;;;;;;7.30;3.78;;;;;;;20.02;55.13;101206.47;5061831;28;20052;-45
2022/04/15 07:41:50;;;;;;;5.03;3.80;;;;;;;20.26;53.60;101203.25;5064895;28;20051;-45
2022/04/15 07:44:18;;;;;;;8.30;3.58;;;;;;;20.50;52.90;101207.03;5074055;28;20751;-45
2022/04/15 07:46:45;;;;;;;3.88;3.40;;;;;;;20.73;52.47;101208.19;5056979;28;20049;-46
2022/04/15 07:49:12;;;;;;;4.97;3.33;;;;;;;21.03;51.82;101200.38;5061372;28;20059;-48
2022/04/15 07:51:39;;;;;;;6.93;4.07;;;;;;;21.26;50.90;101201.50;5059895;28;20107;-44
2022/04/15 07:54:07;;;;;;;4.78;3.97;;;;;;;21.53;51.14;101208.63;5062461;28;20052;-44
2022/04/15 07:56:34;;;;;;;5.45;4.22;;;;;;;21.79;50.22;101204.34;5059469;28;20098;-45
2022/04/15 07:59:02;;;;;;;3.78;2.00;;;;;;;22.12;49.50;101196.25;5078654;28;20695;-43
2022/04/15 08:01:29;;;;;;;6.18;3.90;;;;;;;22.47;49.79;101201.25;5066622;28;20132;-45
2022/04/15 08:03:57;;;;;;;8.95;3.67;;;;;;;22.84;48.39;101205.25;5061886;28;20052;-43
2022/04/15 08:06:25;;;;;;;5.20;3.97;;;;;;;23.10;48.01;101200.81;5057896;28;20060;-44
2022/04/15 08:08:54;;;;;;;5.63;3.70;;;;;;;23.36;47.11;101217.50;5060821;28;20453;-48
2022/04/15 08:11:21;;;;;;;4.63;3.60;;;;;;;23.62;46.41;101210.34;5064702;28;20044;-46
2022/04/15 08:13:49;;;;;;;4.93;4.15;;;;;;;23.91;46.11;101203.97;5060363;28;20832;-49
2022/04/15 08:16:16;;;;;;;5.43;3.92;;;;;;;24.13;45.58;101210.13;5062469;28;20057;-45
2022/04/15 08:18:43;;;;;;;4.72;3.42;;;;;;;24.34;44.95;101203.97;5061649;28;20074;-47
2022/04/15 08:21:09;;;;;;;4.30;3.78;;;;;;;24.61;43.63;101211.66;5078661;28;20040;-51
2022/04/15 08:23:36;;;;;;;4.47;3.50;;;;;;;24.87;43.64;101218.50;5061295;28;20129;-48
2022/04/15 08:26:03;;;;;;;3.80;1.95;;;;;;;25.14;43.04;101220.84;5061104;28;20480;-44
2022/04/15 08:28:29;;;;;;;4.63;3.50;;;;;;;25.38;42.83;101217.09;5063005;28;20049;-44
2022/04/15 08:30:56;;;;;;;4.57;3.47;;;;;;;25.57;42.23;101225.06;5062640;28;20098;-42
2022/04/15 08:33:23;;;;;;;4.38;3.25;;;;;;;25.67;42.44;101221.06;5061257;28;20044;-44
2022/04/15 08:35:50;;;;;;;4.15;3.60;;;;;;;25.79;41.97;101216.09;5061389;28;20046;-51
2022/04/15 08:57:30;;;;;;;3.53;3.10;;;;;;;26.71;39.08;101229.28;5049983;28;20043;-48
2022/04/15 09:07:40;;;;;;;4.78;3.58;;;;;;;26.84;37.63;101240.97;5070461;28;20043;-44
2022/04/15 09:10:07;;;;;;;3.95;3.55;;;;;;;27.03;37.44;101235.59;5060908;28;20830;-44
2022/04/15 09:12:38;;;;;;;4.88;3.03;;;;;;;27.07;36.62;101236.28;5068158;28;20446;-46
2022/04/15 09:17:54;;;;;;;2.78;1.50;;;;;;;26.95;35.71;101243.94;5037020;28;20417;-46
2022/04/15 09:20:22;;;;;;;3.47;2.10;;;;;;;26.97;35.47;101250.97;5014193;28;20089;-47
2022/04/15 09:22:55;;;;;;;2.47;1.30;;;;;;;26.82;35.93;101245.53;5014456;28;20574;-45
2022/04/15 09:25:26;;;;;;;4.20;2.00;;;;;;;26.82;35.84;101242.88;5004874;28;20050;-46
2022/04/15 09:27:56;;;;;;;2.95;1.70;;;;;;;26.99;35.69;101249.13;5004529;28;20054;-43
2022/04/15 09:30:39;;;;;;;3.95;1.60;;;;;;;27.13;35.06;101243.94;5004055;28;20564;-46
2022/04/15 09:33:10;;;;;;;2.80;1.60;;;;;;;27.27;35.15;101242.31;5015086;28;20124;-44
2022/04/15 09:35:37;;;;;;;3.03;1.50;;;;;;;27.42;35.47;101243.28;5011200;28;20050;-47
2022/04/15 09:38:05;;;;;;;3.28;1.83;;;;;;;27.62;34.86;101236.81;5001989;28;20058;-45
2022/04/15 09:40:35;;;;;;;2.78;1.52;;;;;;;27.72;33.99;101237.19;4998198;28;20056;-45
2022/04/15 09:43:06;;;;;;;2.63;1.30;;;;;;;27.54;34.23;101244.38;4999455;28;20053;-47
2022/04/15 09:45:35;;;;;;;2.65;1.30;;;;;;;27.27;34.32;101243.16;4995816;28;20529;-46
2022/04/15 09:48:05;;;;;;;3.95;1.55;;;;;;;27.51;34.56;101249.88;5003457;28;20154;-48
2022/04/15 09:50:35;;;;;;;3.08;1.63;;;;;;;27.57;34.52;101247.75;4996308;28;20054;-44
2022/04/15 09:55:48;;;;;;;4.70;2.03;;;;;;;27.64;32.81;101242.97;5063081;27;20421;-43
2022/04/15 09:58:17;;;;;;;4.80;3.28;;;;;;;27.88;33.25;101247.84;5023159;28;20103;-42
2022/04/15 10:00:48;;;;;;;3.70;3.20;;;;;;;28.07;33.67;101242.28;5019932;28;20054;-45
2022/04/15 10:05:57;;;;;;;2.85;1.67;;;;;;;28.44;33.49;101243.78;5030300;27;20893;-47
2022/04/15 11:35:36;;;;;;;3.40;2.08;;;;;;;26.25;35.31;101201.47;5027064;28;20141;-48
2022/04/15 11:38:08;;;;;;;3.83;1.95;;;;;;;26.44;35.68;101201.41;5038983;28;20442;-46
2022/04/15 11:40:36;;;;;;;4.22;2.67;;;;;;;26.42;35.11;101198.84;5043796;28;20079;-48
2022/04/15 11:43:08;;;;;;;5.72;1.75;;;;;;;26.60;35.36;101201.47;5046862;28;20060;-46
2022/04/15 11:45:37;;;;;;;2.88;2.20;;;;;;;26.46;35.38;101198.69;5047997;28;20440;-46
2022/04/15 11:50:55;;;;;;;5.65;2.08;;;;;;;25.66;36.02;101195.47;5031040;27;20413;-51
2022/04/15 11:53:22;;;;;;;4.65;1.55;;;;;;;25.54;35.83;101190.72;5001487;28;20046;-46
2022/04/15 11:56:06;;;;;;;2.80;1.33;;;;;;;25.37;36.55;101192.38;5011167;28;20064;-43
2022/04/15 11:58:51;;;;;;;3.63;1.73;;;;;;;25.23;36.86;101192.19;5006807;28;20049;-43
2022/04/15 12:01:33;;;;;;;3.47;1.77;;;;;;;24.97;37.18;101191.56;5007522;28;20486;-44
2022/04/15 12:04:01;;;;;;;2.15;1.25;;;;;;;25.13;36.96;101202.34;5007840;28;20064;-43
2022/04/15 12:06:31;;;;;;;1.52;0.85;;;;;;;25.07;36.43;101192.88;5010317;28;20128;-45
2022/04/15 12:08:58;;;;;;;6.85;1.67;;;;;;;24.82;37.09;101203.72;5006056;28;20107;-45
2022/04/15 12:11:26;;;;;;;3.33;1.52;;;;;;;24.73;37.45;101191.72;5010287;28;20116;-46
2022/04/15 12:13:59;;;;;;;2.50;1.15;;;;;;;24.60;36.82;101194.06;5006675;28;20056;-43
2022/04/15 12:16:29;;;;;;;3.90;1.23;;;;;;;24.46;37.44;101202.59;5010043;28;20045;-45
2022/04/15 12:18:57;;;;;;;3.25;1.75;;;;;;;24.26;37.64;101191.06;5013979;28;20393;-44
2022/04/15 12:21:25;;;;;;;2.53;1.38;;;;;;;24.06;38.22;101195.38;5014978;28;20046;-41
2022/04/15 12:24:10;;;;;;;3.85;1.40;;;;;;;24.00;38.90;101193.00;5008077;28;20058;-45
2022/04/15 12:26:42;;;;;;;4.25;1.55;;;;;;;24.06;38.50;101195.38;5001525;28;20054;-41
2022/04/15 12:32:15;;;;;;;2.42;1.92;;;;;;;23.69;39.34;101199.53;4988963;28;20152;-44
2022/04/15 12:34:43;;;;;;;2.28;1.48;;;;;;;23.68;39.60;101205.75;5037757;28;20054;-43
2022/04/15 12:37:34;;;;;;;3.13;1.23;;;;;;;23.73;39.63;101203.75;5007412;28;20045;-44
2022/04/15 12:40:05;;;;;;;2.42;1.13;;;;;;;23.99;39.38;101193.91;5001352;28;20054;-44
2022/04/15 12:42:33;;;;;;;4.13;1.20;;;;;;;24.26;39.43;101205.16;5045784;28;20571;-45
2022/04/15 12:45:03;;;;;;;3.95;3.45;;;;;;;24.64;39.34;101207.09;4994367;28;20620;-42
2022/04/15 12:47:30;;;;;;;2.65;1.50;;;;;;;24.88;38.54;101214.91;5007075;28;20768;-43
2022/04/15 12:50:20;;;;;;;3.17;1.02;;;;;;;25.00;37.65;101199.41;5007245;28;20049;-45
2022/04/15 12:52:48;;;;;;;4.95;1.77;;;;;;;24.93;37.39;101203.25;5010048;28;20095;-46
2022/04/15 12:58:15;;;;;;;4.22;1.25;;;;;;;24.54;38.14;101200.47;5056060;28;21102;-42
2022/04/15 13:00:41;;;;;;;3.65;1.70;;;;;;;24.43;38.21;101202.72;4985685;28;20058;-44
2022/04/15 13:03:08;;;;;;;3.70;1.70;;;;;;;24.40;38.08;101206.38;5004109;28;20545;-43
2022/04/15 13:05:35;;;;;;;3.35;1.67;;;;;;;24.53;38.48;101214.66;5016931;28;20058;-41
2022/04/15 13:08:01;;;;;;;2.88;1.40;;;;;;;24.63;38.73;101210.66;4997790;28;20050;-46
2022/04/15 13:10:28;;;;;;;3.80;1.38;;;;;;;24.77;38.82;101212.72;4986220;28;20113;-41
2022/04/15 13:13:19;;;;;;;4.80;1.73;;;;;;;24.96;37.89;101211.91;4983763;28;20085;-42
2022/04/15 13:15:48;;;;;;;3.75;1.67;;;;;;;24.97;37.28;101207.47;4983354;28;20493;-45
2022/04/15 13:18:16;;;;;;;3.70;1.77;;;;;;;24.76;37.79;101203.03;4984641;28;20061;-44
2022/04/15 13:20:45;;;;;;;2.88;1.33;;;;;;;24.52;38.91;101208.47;4979395;28;20043;-43
2022/04/15 13:23:11;;;;;;;3.85;1.58;;;;;;;24.47;38.27;101205.19;4980518;28;20112;-42
2022/04/15 13:25:38;;;;;;;3.33;1.35;;;;;;;24.56;37.46;101205.72;4984824;28;20058;-42
2022/04/15 13:28:05;;;;;;;3.53;1.73;;;;;;;24.70;36.88;101205.09;5005306;28;20096;-41
2022/04/15 13:30:32;;;;;;;2.92;1.40;;;;;;;24.80;36.92;101205.56;4987609;28;20128;-49
2022/04/15 13:33:02;;;;;;;3.03;1.20;;;;;;;24.81;36.23;101202.84;4995650;28;20530;-45
2022/04/15 13:35:30;;;;;;;3.50;1.60;;;;;;;24.73;36.90;101204.97;4992003;28;20054;-44
2022/04/15 13:37:57;;;;;;;2.03;1.13;;;;;;;24.79;37.23;101199.41;4986823;28;20065;-48
2022/04/15 13:40:24;;;;;;;3.78;1.65;;;;;;;24.91;37.23;101198.00;5001557;28;20445;-43